createdAt,value
2022-08-10T00:01:54.410Z,22.21
2022-08-10T00:04:23.062Z,22.13
2022-08-10T00:06:52.615Z,22.28
2022-08-10T00:09:20.035Z,22.25
2022-08-10T00:11:46.766Z,22.27
2022-08-10T00:14:13.513Z,22.18
2022-08-10T00:16:40.326Z,22.22
2022-08-10T00:19:07.017Z,22.17
2022-08-10T00:21:33.757Z,21.92
2022-08-10T00:24:00.639Z,22.11
2022-08-10T00:27:58.657Z,22.08
2022-08-10T00:29:14.152Z,21.90
2022-08-10T00:31:58.441Z,22.04
2022-08-10T00:34:55.346Z,21.93
2022-08-10T00:37:22.194Z,21.90
2022-08-10T00:39:49.008Z,21.86
2022-08-10T00:42:16.324Z,21.80
2022-08-10T00:44:47.662Z,21.86
2022-08-10T00:47:22.642Z,21.74
2022-08-10T00:50:01.615Z,21.79
2022-08-10T00:52:30.812Z,21.84
2022-08-10T00:54:58.613Z,21.80
2022-08-10T00:57:25.821Z,21.70
2022-08-10T01:00:43.124Z,21.58
2022-08-10T01:03:09.873Z,21.46
2022-08-10T01:05:51.279Z,21.36
2022-08-10T01:08:32.240Z,21.37
2022-08-10T01:12:28.635Z,21.41
2022-08-10T01:14:08.178Z,21.32
2022-08-10T01:16:40.547Z,21.35
2022-08-10T01:19:25.504Z,21.34
2022-08-10T01:22:26.178Z,21.26
2022-08-10T01:25:21.648Z,21.20
2022-08-10T01:28:04.602Z,21.07
2022-08-10T01:30:33.747Z,21.05
2022-08-10T01:33:10.477Z,20.97
2022-08-10T01:35:49.074Z,20.89
2022-08-10T01:38:24.700Z,20.84
2022-08-10T01:41:00.243Z,20.83
2022-08-10T01:43:30.567Z,20.85
2022-08-10T01:46:01.510Z,20.74
2022-08-10T01:48:32.622Z,20.63
2022-08-10T01:51:27.542Z,20.31
2022-08-10T01:54:14.444Z,20.31
2022-08-10T01:56:45.397Z,20.27
2022-08-10T01:59:13.789Z,20.21
2022-08-10T02:01:45.383Z,20.12
2022-08-10T02:04:14.124Z,20.08
2022-08-10T02:06:45.368Z,20.00
2022-08-10T02:09:17.079Z,19.90
2022-08-10T02:12:06.142Z,19.80
2022-08-10T02:14:43.925Z,19.77
2022-08-10T02:17:57.671Z,19.81
2022-08-10T02:20:07.471Z,19.67
2022-08-10T02:22:38.872Z,19.70
2022-08-10T02:25:42.715Z,19.76
2022-08-10T02:27:59.330Z,19.87
2022-08-10T02:30:28.596Z,19.93
2022-08-10T02:32:58.914Z,19.96
2022-08-10T02:35:27.826Z,19.99
2022-08-10T02:38:06.163Z,20.06
2022-08-10T02:45:14.590Z,19.97
2022-08-10T02:45:18.779Z,19.59
2022-08-10T02:46:29.352Z,19.38
2022-08-10T02:49:04.579Z,19.13
2022-08-10T02:52:07.139Z,19.15
2022-08-10T02:54:43.224Z,19.06
2022-08-10T02:57:16.627Z,18.98
2022-08-10T02:59:48.240Z,18.88
2022-08-10T03:02:27.946Z,18.93
2022-08-10T03:05:01.290Z,18.82
2022-08-10T03:07:43.989Z,18.81
2022-08-10T03:10:32.837Z,18.57
2022-08-10T03:13:01.894Z,18.55
2022-08-10T03:15:34.554Z,18.50
2022-08-10T03:18:02.976Z,18.47
2022-08-10T03:20:39.622Z,18.44
2022-08-10T03:23:21.727Z,18.44
2022-08-10T03:25:53.076Z,18.44
2022-08-10T03:28:27.537Z,18.37
2022-08-10T03:30:55.002Z,18.37
2022-08-10T03:33:24.318Z,18.45
2022-08-10T03:36:42.055Z,18.34
2022-08-10T03:38:40.563Z,18.30
2022-08-10T03:41:11.523Z,18.32
2022-08-10T03:43:47.592Z,18.17
2022-08-10T03:46:16.199Z,18.15
2022-08-10T03:48:49.409Z,18.11
2022-08-10T03:51:19.447Z,18.01
2022-08-10T03:54:03.587Z,17.94
2022-08-10T03:56:36.046Z,17.86
2022-08-10T03:59:03.250Z,17.76
2022-08-10T04:02:46.227Z,17.49
2022-08-10T04:04:23.597Z,17.62
2022-08-10T04:06:54.901Z,17.68
2022-08-10T04:09:42.709Z,17.72
2022-08-10T04:12:13.718Z,17.83
2022-08-10T04:14:49.257Z,17.86
2022-08-10T04:18:03.975Z,17.97
2022-08-10T04:20:34.273Z,17.80
2022-08-10T04:23:06.885Z,17.66
2022-08-10T04:25:34.438Z,17.46
2022-08-10T04:28:01.695Z,17.25
2022-08-10T04:30:31.936Z,17.21
2022-08-10T04:33:01.775Z,17.20
2022-08-10T04:35:29.761Z,17.23
2022-08-10T04:37:58.130Z,17.29
2022-08-10T04:40:30.383Z,17.33
2022-08-10T04:43:12.883Z,17.38
2022-08-10T04:45:50.286Z,17.48
2022-08-10T04:48:40.613Z,17.52
2022-08-10T04:51:17.503Z,17.53
2022-08-10T04:54:05.362Z,17.50
2022-08-10T04:56:38.107Z,17.64
2022-08-10T04:59:10.211Z,17.65
2022-08-10T05:02:22.724Z,17.72
2022-08-10T05:04:36.849Z,17.76
2022-08-10T05:07:16.594Z,17.73
2022-08-10T05:10:01.628Z,17.66
2022-08-10T05:12:41.107Z,17.74
2022-08-10T05:15:12.600Z,17.69
2022-08-10T05:18:08.636Z,17.89
2022-08-10T05:20:30.305Z,17.94
2022-08-10T05:22:57.331Z,17.97
2022-08-10T05:25:24.038Z,18.15
2022-08-10T05:27:52.406Z,18.06
2022-08-10T05:30:21.868Z,18.20
2022-08-10T05:32:56.483Z,18.26
2022-08-10T05:35:56.870Z,18.41
2022-08-10T05:38:17.862Z,18.67
2022-08-10T05:40:46.479Z,18.88
2022-08-10T05:43:19.430Z,19.05
2022-08-10T05:46:17.956Z,19.11
2022-08-10T05:48:54.319Z,19.35
2022-08-10T05:51:23.652Z,19.68
2022-08-10T05:54:04.161Z,19.86
2022-08-10T05:56:56.573Z,20.19
2022-08-10T06:00:32.782Z,20.43
2022-08-10T06:02:41.407Z,20.68
2022-08-10T06:05:14.757Z,20.89
2022-08-10T06:07:47.940Z,20.98
2022-08-10T06:10:31.263Z,21.04
2022-08-10T06:13:27.135Z,21.36
2022-08-10T06:16:04.142Z,21.50
2022-08-10T06:18:31.516Z,21.65
2022-08-10T06:21:00.529Z,21.73
2022-08-10T06:23:29.607Z,21.90
2022-08-10T06:26:11.713Z,22.07
2022-08-10T06:29:01.919Z,22.34
2022-08-10T06:31:48.790Z,22.51
2022-08-10T06:34:39.493Z,22.72
2022-08-10T06:37:08.525Z,22.87
2022-08-10T06:39:36.791Z,23.03
2022-08-10T06:42:16.555Z,23.24
2022-08-10T06:44:54.430Z,23.42
2022-08-10T06:47:26.580Z,23.31
2022-08-10T06:49:59.778Z,23.61
2022-08-10T06:52:29.869Z,23.73
2022-08-10T06:54:58.743Z,23.77
2022-08-10T06:57:31.186Z,24.04
2022-08-10T07:00:01.717Z,24.09
2022-08-10T07:02:46.912Z,24.15
2022-08-10T07:05:20.454Z,24.35
2022-08-10T07:07:50.237Z,24.61
2022-08-10T07:10:19.950Z,24.81
2022-08-10T07:12:52.648Z,24.88
2022-08-10T07:15:21.049Z,24.95
2022-08-10T07:17:49.110Z,25.15
2022-08-10T07:20:18.903Z,25.17
2022-08-10T07:23:51.893Z,25.32
2022-08-10T07:25:37.913Z,25.48
2022-08-10T07:28:05.433Z,25.65
2022-08-10T07:30:36.922Z,25.89
2022-08-10T07:33:05.696Z,26.17
2022-08-10T07:35:42.916Z,26.20
2022-08-10T07:38:18.951Z,26.33
2022-08-10T07:40:47.576Z,26.52
2022-08-10T07:43:16.802Z,26.40
2022-08-10T07:45:44.938Z,26.52
2022-08-10T07:48:28.670Z,26.79
2022-08-10T07:50:59.341Z,27.02
2022-08-10T07:53:38.596Z,27.16
2022-08-10T07:56:16.838Z,27.12
2022-08-10T07:59:10.722Z,27.35
2022-08-10T08:01:42.662Z,27.46
2022-08-10T08:04:12.337Z,27.71
2022-08-10T08:06:44.026Z,27.71
2022-08-10T08:09:13.828Z,27.83
2022-08-10T08:11:44.087Z,28.23
2022-08-10T08:14:12.876Z,28.46
2022-08-10T08:16:44.323Z,28.72
2022-08-10T08:19:28.441Z,28.95
2022-08-10T08:24:05.428Z,29.09
2022-08-10T08:24:46.841Z,29.21
2022-08-10T08:27:16.777Z,29.31
2022-08-10T08:29:47.295Z,29.40
2022-08-10T08:32:18.348Z,29.18
2022-08-10T08:34:46.839Z,29.11
2022-08-10T08:38:26.496Z,29.31
2022-08-10T08:40:07.718Z,29.76
2022-08-10T08:42:52.674Z,29.87
2022-08-10T08:45:37.729Z,30.15
2022-08-10T08:48:46.016Z,30.06
2022-08-10T08:52:09.915Z,29.84
2022-08-10T08:54:32.921Z,29.91
2022-08-10T08:57:50.569Z,30.12
2022-08-10T09:00:45.104Z,30.08
2022-08-10T09:04:19.601Z,30.48
2022-08-10T09:06:55.131Z,30.57
2022-08-10T09:09:34.227Z,30.62
2022-08-10T09:12:10.096Z,30.76
2022-08-10T09:14:49.255Z,30.60
2022-08-10T09:17:37.939Z,30.71
2022-08-10T09:20:19.042Z,30.90
2022-08-10T09:23:08.255Z,30.58
2022-08-10T09:25:37.708Z,31.06
2022-08-10T09:28:11.595Z,31.27
2022-08-10T09:31:20.813Z,31.50
2022-08-10T09:36:20.385Z,31.82
2022-08-10T09:36:42.553Z,32.01
2022-08-10T09:40:06.720Z,32.08
2022-08-10T09:42:42.613Z,31.14
2022-08-10T09:45:24.052Z,31.76
2022-08-10T09:48:18.471Z,31.77
2022-08-10T09:51:44.369Z,31.70
2022-08-10T09:55:07.079Z,31.18
2022-08-10T09:57:46.806Z,31.84
2022-08-10T10:00:23.248Z,30.79
2022-08-10T10:02:52.471Z,29.84
2022-08-10T10:05:38.332Z,29.90
2022-08-10T10:08:17.973Z,30.31
2022-08-10T10:11:06.972Z,30.58
2022-08-10T10:13:48.955Z,30.73
2022-08-10T10:16:48.192Z,31.23
2022-08-10T10:19:36.158Z,31.37
2022-08-10T10:22:28.047Z,32.06
2022-08-10T10:25:19.517Z,32.02
2022-08-10T10:28:06.013Z,32.18
2022-08-10T10:30:40.495Z,32.63
2022-08-10T10:33:14.848Z,32.95
2022-08-10T10:35:52.146Z,33.28
2022-08-10T10:38:21.601Z,32.30
2022-08-10T10:41:14.383Z,32.36
2022-08-10T10:44:04.982Z,32.72
2022-08-10T10:46:59.085Z,32.85
2022-08-10T10:49:52.481Z,33.03
2022-08-10T10:52:40.800Z,33.35
2022-08-10T10:55:28.122Z,32.73
2022-08-10T10:58:20.161Z,32.88
2022-08-10T11:01:03.781Z,33.03
2022-08-10T11:04:06.133Z,33.09
2022-08-10T11:06:57.906Z,33.17
2022-08-10T11:10:08.828Z,33.42
2022-08-10T11:12:24.146Z,33.11
2022-08-10T11:15:26.100Z,32.98
2022-08-10T11:17:59.165Z,33.41
2022-08-10T11:20:38.677Z,33.89
2022-08-10T11:23:18.962Z,33.79
2022-08-10T11:25:53.904Z,33.59
2022-08-10T11:28:35.046Z,33.65
2022-08-10T11:31:19.470Z,33.93
2022-08-10T11:34:47.408Z,33.72
2022-08-10T11:37:10.695Z,33.82
2022-08-10T11:39:49.968Z,34.03
2022-08-10T11:42:53.119Z,33.95
2022-08-10T11:45:22.736Z,33.84
2022-08-10T11:48:54.260Z,33.72
2022-08-10T11:51:35.649Z,33.39
2022-08-10T11:54:12.744Z,33.66
2022-08-10T11:56:48.795Z,34.09
2022-08-10T11:59:58.216Z,34.06
2022-08-10T12:02:32.960Z,34.00
2022-08-10T12:05:21.692Z,34.05
2022-08-10T12:10:02.425Z,33.73
2022-08-10T12:10:41.145Z,33.78
2022-08-10T12:13:28.042Z,33.69
2022-08-10T12:16:04.742Z,34.01
2022-08-10T12:18:46.407Z,34.23
2022-08-10T12:21:21.951Z,34.20
2022-08-10T12:24:03.049Z,34.41
2022-08-10T12:26:38.056Z,34.44
2022-08-10T12:29:13.956Z,34.23
2022-08-10T12:31:47.971Z,34.39
2022-08-10T12:34:23.480Z,34.63
2022-08-10T12:37:35.553Z,34.42
2022-08-10T12:40:36.125Z,34.54
2022-08-10T12:44:03.688Z,34.76
2022-08-10T12:46:33.027Z,34.67
2022-08-10T12:49:36.356Z,34.49
2022-08-10T12:52:13.360Z,34.21
2022-08-10T12:54:42.141Z,33.64
2022-08-10T12:57:14.681Z,33.15
2022-08-10T12:59:44.143Z,33.41
2022-08-10T13:02:21.432Z,33.45
2022-08-10T13:04:51.959Z,33.87
2022-08-10T13:08:24.186Z,33.74
2022-08-10T13:10:30.943Z,33.51
2022-08-10T13:12:59.916Z,33.65
2022-08-10T13:15:50.770Z,33.57
2022-08-10T13:18:26.645Z,33.82
2022-08-10T13:20:55.970Z,34.11
2022-08-10T13:23:28.220Z,34.17
2022-08-10T13:25:58.203Z,34.29
2022-08-10T13:28:40.062Z,34.39
2022-08-10T13:31:22.131Z,34.15
2022-08-10T13:34:42.262Z,33.78
2022-08-10T13:37:11.262Z,33.82
2022-08-10T13:39:59.056Z,33.82
2022-08-10T13:42:41.152Z,33.76
2022-08-10T13:45:11.215Z,33.43
2022-08-10T13:47:49.108Z,33.49
2022-08-10T13:50:33.472Z,34.02
2022-08-10T13:53:09.948Z,34.00
2022-08-10T13:55:56.105Z,33.95
2022-08-10T13:58:31.067Z,33.72
2022-08-10T14:01:09.003Z,33.41
2022-08-10T14:03:39.933Z,33.54
2022-08-10T14:06:11.802Z,33.70
2022-08-10T14:08:39.483Z,33.48
2022-08-10T14:11:12.986Z,33.62
2022-08-10T14:13:53.135Z,33.52
2022-08-10T14:16:20.794Z,32.81
2022-08-10T14:18:51.200Z,32.46
2022-08-10T14:21:18.349Z,32.48
2022-08-10T14:23:51.999Z,32.69
2022-08-10T14:26:28.135Z,33.01
2022-08-10T14:29:08.880Z,33.04
2022-08-10T14:31:39.070Z,32.94
2022-08-10T14:34:59.489Z,32.92
2022-08-10T14:37:30.058Z,32.99
2022-08-10T14:40:11.718Z,33.21
2022-08-10T14:42:47.929Z,33.29
2022-08-10T14:45:24.740Z,33.10
2022-08-10T14:48:01.064Z,32.68
2022-08-10T14:50:32.288Z,32.47
2022-08-10T14:53:14.939Z,32.66
2022-08-10T14:55:58.712Z,32.79
2022-08-10T14:58:58.830Z,32.85
2022-08-10T15:01:59.879Z,32.63
2022-08-10T15:04:24.716Z,32.66
2022-08-10T15:07:22.831Z,32.50
2022-08-10T15:10:00.151Z,32.57
2022-08-10T15:12:38.484Z,32.58
2022-08-10T15:15:09.573Z,32.49
2022-08-10T15:17:43.170Z,32.43
2022-08-10T15:20:20.798Z,32.52
2022-08-10T15:22:54.133Z,32.57
2022-08-10T15:25:25.862Z,32.45
2022-08-10T15:28:06.034Z,32.40
2022-08-10T15:30:42.277Z,32.37
2022-08-10T15:34:02.031Z,32.26
2022-08-10T15:36:45.168Z,32.24
2022-08-10T15:40:25.304Z,32.25
2022-08-10T15:42:16.810Z,32.07
2022-08-10T15:44:45.351Z,31.81
2022-08-10T15:47:25.760Z,31.61
2022-08-10T15:50:02.726Z,31.64
2022-08-10T15:52:39.145Z,31.66
2022-08-10T15:55:41.670Z,31.50
2022-08-10T15:58:43.430Z,31.58
2022-08-10T16:02:14.430Z,31.53
2022-08-10T16:04:32.200Z,31.41
2022-08-10T16:07:12.358Z,31.42
2022-08-10T16:10:22.992Z,31.43
2022-08-10T16:12:45.041Z,31.37
2022-08-10T16:15:29.103Z,31.25
2022-08-10T16:18:03.339Z,33.18
2022-08-10T16:20:33.686Z,36.30
2022-08-10T16:23:29.047Z,37.70
2022-08-10T16:26:01.826Z,38.36
2022-08-10T16:28:38.669Z,38.72
2022-08-10T16:31:10.575Z,39.25
2022-08-10T16:33:53.971Z,38.97
2022-08-10T16:36:28.944Z,39.15
2022-08-10T16:38:57.612Z,38.79
2022-08-10T16:42:04.745Z,38.29
2022-08-10T16:44:20.178Z,38.59
2022-08-10T16:46:49.405Z,38.50
2022-08-10T16:49:21.445Z,38.32
2022-08-10T16:52:11.286Z,38.62
2022-08-10T16:54:41.427Z,39.31
2022-08-10T16:57:11.742Z,39.15
2022-08-10T16:59:40.697Z,38.92
2022-08-10T17:02:16.990Z,38.83
2022-08-10T17:04:46.409Z,38.47
2022-08-10T17:07:17.119Z,38.83
2022-08-10T17:09:50.757Z,39.24
2022-08-10T17:12:52.987Z,39.43
2022-08-10T17:15:26.112Z,39.63
2022-08-10T17:17:54.288Z,39.22
2022-08-10T17:20:31.585Z,39.02
2022-08-10T17:23:06.544Z,38.61
2022-08-10T17:25:48.234Z,38.36
2022-08-10T17:28:32.794Z,38.44
2022-08-10T17:31:23.792Z,38.51
2022-08-10T17:33:58.079Z,37.77
2022-08-10T17:36:32.191Z,37.62
2022-08-10T17:39:00.549Z,37.53
2022-08-10T17:41:31.428Z,37.03
2022-08-10T17:44:04.619Z,36.14
2022-08-10T17:46:40.343Z,34.24
2022-08-10T17:49:13.723Z,32.26
2022-08-10T17:51:42.409Z,31.37
2022-08-10T17:54:22.701Z,30.95
2022-08-10T17:56:57.794Z,30.48
2022-08-10T17:59:27.328Z,30.22
2022-08-10T18:02:02.187Z,29.99
2022-08-10T18:04:40.896Z,29.77
2022-08-10T18:07:12.343Z,29.64
2022-08-10T18:10:01.666Z,29.46
2022-08-10T18:12:39.705Z,29.32
2022-08-10T18:15:13.865Z,29.16
2022-08-10T18:17:47.507Z,29.09
2022-08-10T18:20:19.951Z,28.91
2022-08-10T18:22:51.376Z,28.76
2022-08-10T18:25:26.860Z,28.60
2022-08-10T18:28:04.618Z,28.46
2022-08-10T18:30:36.402Z,28.35
2022-08-10T18:33:08.312Z,28.30
2022-08-10T18:35:35.751Z,28.24
2022-08-10T18:38:09.295Z,28.17
2022-08-10T18:40:39.962Z,27.94
2022-08-10T18:44:06.607Z,27.88
2022-08-10T18:46:02.040Z,27.79
2022-08-10T18:48:42.089Z,27.71
2022-08-10T18:51:11.317Z,27.59
2022-08-10T18:53:48.707Z,27.46
2022-08-10T18:56:20.989Z,27.35
2022-08-10T18:58:47.669Z,27.26
2022-08-10T19:01:42.675Z,27.11
2022-08-10T19:04:29.630Z,26.83
2022-08-10T19:07:00.477Z,26.69
2022-08-10T19:09:48.046Z,26.65
2022-08-10T19:12:42.776Z,26.60
2022-08-10T19:15:23.712Z,26.51
2022-08-10T19:18:17.146Z,26.38
2022-08-10T19:20:48.572Z,26.16
2022-08-10T19:23:53.103Z,26.02
2022-08-10T19:26:41.922Z,25.90
2022-08-10T19:30:08.254Z,25.79
2022-08-10T19:32:10.637Z,25.70
2022-08-10T19:34:51.265Z,25.56
2022-08-10T19:37:37.140Z,25.57
2022-08-10T19:40:46.576Z,25.38
2022-08-10T19:43:59.890Z,25.26
2022-08-10T19:46:43.278Z,25.24
2022-08-10T19:49:22.489Z,25.15
2022-08-10T19:52:11.197Z,25.09
2022-08-10T19:54:56.810Z,25.00
2022-08-10T19:57:39.863Z,24.90
2022-08-10T20:00:19.224Z,24.97
2022-08-10T20:03:00.697Z,24.92
2022-08-10T20:05:33.573Z,24.89
2022-08-10T20:08:17.751Z,24.70
2022-08-10T20:11:44.479Z,24.52
2022-08-10T20:14:30.445Z,24.42
2022-08-10T20:17:04.860Z,24.35
2022-08-10T20:19:58.726Z,24.27
2022-08-10T20:22:30.416Z,24.21
2022-08-10T20:25:14.402Z,24.04
2022-08-10T20:28:13.279Z,23.96
2022-08-10T20:30:46.567Z,23.78
2022-08-10T20:33:38.395Z,23.78
2022-08-10T20:36:09.761Z,23.57
2022-08-10T20:39:10.156Z,23.63
2022-08-10T20:41:59.815Z,23.61
2022-08-10T20:44:57.405Z,23.58
2022-08-10T20:48:11.717Z,23.47
2022-08-10T20:50:55.936Z,23.34
2022-08-10T20:53:26.837Z,23.24
2022-08-10T20:56:13.751Z,23.05
2022-08-10T20:59:16.634Z,23.07
2022-08-10T21:02:11.324Z,23.11
2022-08-10T21:05:19.558Z,23.02
2022-08-10T21:08:05.295Z,22.91
2022-08-10T21:10:38.571Z,22.86
2022-08-10T21:14:01.834Z,22.83
2022-08-10T21:16:52.842Z,22.77
2022-08-10T21:19:41.577Z,22.71
2022-08-10T21:22:29.031Z,22.64
2022-08-10T21:25:04.966Z,22.67
2022-08-10T21:27:47.142Z,22.72
2022-08-10T21:30:26.116Z,22.67
2022-08-10T21:33:05.180Z,22.73
2022-08-10T21:35:51.134Z,22.65
2022-08-10T21:38:36.400Z,22.57
2022-08-10T21:41:56.423Z,22.49
2022-08-10T21:45:11.349Z,22.38
2022-08-10T21:48:17.444Z,22.33
2022-08-10T21:52:00.591Z,22.29
2022-08-10T21:54:54.142Z,22.30
2022-08-10T21:58:07.297Z,22.26
2022-08-10T22:00:57.727Z,22.23
2022-08-10T22:03:43.700Z,22.24
2022-08-10T22:06:33.813Z,22.03
2022-08-10T22:09:33.726Z,22.11
2022-08-10T22:12:34.396Z,21.95
2022-08-10T22:16:10.389Z,22.25
2022-08-10T22:19:01.409Z,22.43
2022-08-10T22:22:34.461Z,22.71
2022-08-10T22:26:07.340Z,22.75
2022-08-10T22:29:11.667Z,22.68
2022-08-10T22:32:15.357Z,22.76
2022-08-10T22:35:22.351Z,22.74
2022-08-10T22:38:15.085Z,22.66
2022-08-10T22:41:05.031Z,22.56
2022-08-10T22:43:52.764Z,22.52
2022-08-10T22:46:43.570Z,22.53
2022-08-10T22:49:10.664Z,22.57
2022-08-10T22:51:44.266Z,22.57
2022-08-10T22:55:04.144Z,22.75
2022-08-10T22:57:49.839Z,22.74
2022-08-10T23:00:30.999Z,22.74
2022-08-10T23:03:14.526Z,22.71
2022-08-10T23:05:54.078Z,22.69
2022-08-10T23:08:32.402Z,22.76
2022-08-10T23:11:08.608Z,22.75
2022-08-10T23:13:43.445Z,22.64
2022-08-10T23:16:36.512Z,22.62
2022-08-10T23:19:18.535Z,22.67
2022-08-10T23:22:03.940Z,22.60
2022-08-10T23:24:34.142Z,22.36
2022-08-10T23:27:12.464Z,22.27
2022-08-10T23:30:03.647Z,22.07
2022-08-10T23:32:35.352Z,21.88
2022-08-10T23:36:29.621Z,21.66
2022-08-10T23:37:58.208Z,21.47
2022-08-10T23:40:26.518Z,21.30
2022-08-10T23:42:55.834Z,21.05
2022-08-10T23:45:25.412Z,21.08
2022-08-10T23:47:57.294Z,21.07
2022-08-10T23:50:26.172Z,20.92
2022-08-10T23:52:58.394Z,20.95
2022-08-10T23:55:29.940Z,20.97
2022-08-10T23:58:22.229Z,20.96
